sensor_id;sensor_type;location;lat;lon;timestamp;P1;durP1;ratioP1;P2;durP2;ratioP2
4232;SDS011;2130;48.472;11.934;2023-02-28T00:00:54;26.40;;;2.10;;
4232;SDS011;2130;48.472;11.934;2023-02-28T00:03:43;25.80;;;1.70;;
4232;SDS011;2130;48.472;11.934;2023-02-28T00:06:33;26.80;;;1.60;;
4232;SDS011;2130;48.472;11.934;2023-02-28T00:09:24;25.40;;;1.47;;
4232;SDS011;2130;48.472;11.934;2023-02-28T00:12:14;25.90;;;1.63;;
4232;SDS011;2130;48.472;11.934;2023-02-28T00:15:05;34.43;;;1.50;;
4232;SDS011;2130;48.472;11.934;2023-02-28T00:17:57;25.20;;;1.40;;
4232;SDS011;2130;48.472;11.934;2023-02-28T00:20:47;26.07;;;1.90;;
4232;SDS011;2130;48.472;11.934;2023-02-28T00:23:37;25.37;;;1.47;;
4232;SDS011;2130;48.472;11.934;2023-02-28T00:26:27;25.43;;;1.50;;
4232;SDS011;2130;48.472;11.934;2023-02-28T00:29:17;25.50;;;1.47;;
4232;SDS011;2130;48.472;11.934;2023-02-28T00:32:07;25.73;;;1.70;;
4232;SDS011;2130;48.472;11.934;2023-02-28T00:34:59;25.57;;;1.50;;
4232;SDS011;2130;48.472;11.934;2023-02-28T00:37:49;26.00;;;2.07;;
4232;SDS011;2130;48.472;11.934;2023-02-28T00:40:39;25.40;;;1.40;;
4232;SDS011;2130;48.472;11.934;2023-02-28T00:43:31;25.33;;;1.47;;
4232;SDS011;2130;48.472;11.934;2023-02-28T00:46:22;25.70;;;1.80;;
4232;SDS011;2130;48.472;11.934;2023-02-28T00:49:11;25.60;;;1.70;;
4232;SDS011;2130;48.472;11.934;2023-02-28T00:52:04;25.67;;;1.80;;
4232;SDS011;2130;48.472;11.934;2023-02-28T00:54:55;25.40;;;1.50;;
4232;SDS011;2130;48.472;11.934;2023-02-28T00:57:45;25.83;;;1.57;;
4232;SDS011;2130;48.472;11.934;2023-02-28T01:00:34;29.47;;;2.10;;
4232;SDS011;2130;48.472;11.934;2023-02-28T01:03:25;25.73;;;1.50;;
4232;SDS011;2130;48.472;11.934;2023-02-28T01:06:15;27.43;;;2.20;;
4232;SDS011;2130;48.472;11.934;2023-02-28T01:09:06;26.20;;;2.00;;
4232;SDS011;2130;48.472;11.934;2023-02-28T01:11:57;25.77;;;1.60;;
4232;SDS011;2130;48.472;11.934;2023-02-28T01:14:47;26.13;;;1.80;;
4232;SDS011;2130;48.472;11.934;2023-02-28T01:17:37;25.70;;;2.03;;
4232;SDS011;2130;48.472;11.934;2023-02-28T01:20:26;25.50;;;1.53;;
4232;SDS011;2130;48.472;11.934;2023-02-28T01:23:17;25.90;;;1.60;;
4232;SDS011;2130;48.472;11.934;2023-02-28T01:26:10;25.57;;;1.77;;
4232;SDS011;2130;48.472;11.934;2023-02-28T01:29:01;25.97;;;2.00;;
4232;SDS011;2130;48.472;11.934;2023-02-28T01:31:54;26.60;;;1.93;;
4232;SDS011;2130;48.472;11.934;2023-02-28T01:34:45;25.70;;;1.50;;
4232;SDS011;2130;48.472;11.934;2023-02-28T01:37:35;26.57;;;1.90;;
4232;SDS011;2130;48.472;11.934;2023-02-28T01:40:24;25.63;;;1.70;;
4232;SDS011;2130;48.472;11.934;2023-02-28T01:43:20;25.40;;;1.50;;
4232;SDS011;2130;48.472;11.934;2023-02-28T01:46:11;25.50;;;1.70;;
4232;SDS011;2130;48.472;11.934;2023-02-28T01:49:05;28.30;;;2.00;;
4232;SDS011;2130;48.472;11.934;2023-02-28T01:51:57;26.60;;;1.73;;
4232;SDS011;2130;48.472;11.934;2023-02-28T01:54:49;25.57;;;1.57;;
4232;SDS011;2130;48.472;11.934;2023-02-28T01:57:41;25.60;;;1.43;;
4232;SDS011;2130;48.472;11.934;2023-02-28T02:00:36;27.50;;;2.13;;
4232;SDS011;2130;48.472;11.934;2023-02-28T02:03:30;25.90;;;1.80;;
4232;SDS011;2130;48.472;11.934;2023-02-28T02:06:20;28.03;;;2.50;;
4232;SDS011;2130;48.472;11.934;2023-02-28T02:09:11;25.67;;;1.70;;
4232;SDS011;2130;48.472;11.934;2023-02-28T02:12:02;26.00;;;2.00;;
4232;SDS011;2130;48.472;11.934;2023-02-28T02:15:12;25.50;;;1.77;;
4232;SDS011;2130;48.472;11.934;2023-02-28T02:18:07;25.93;;;1.70;;
4232;SDS011;2130;48.472;11.934;2023-02-28T02:27:43;25.70;;;1.63;;
4232;SDS011;2130;48.472;11.934;2023-02-28T02:31:13;26.33;;;2.23;;
4232;SDS011;2130;48.472;11.934;2023-02-28T02:37:51;25.00;;;1.50;;
4232;SDS011;2130;48.472;11.934;2023-02-28T02:40:48;25.73;;;1.77;;
4232;SDS011;2130;48.472;11.934;2023-02-28T02:43:40;25.60;;;1.70;;
4232;SDS011;2130;48.472;11.934;2023-02-28T02:46:35;25.50;;;1.53;;
4232;SDS011;2130;48.472;11.934;2023-02-28T02:49:28;26.00;;;1.80;;
4232;SDS011;2130;48.472;11.934;2023-02-28T02:52:25;25.60;;;1.63;;
4232;SDS011;2130;48.472;11.934;2023-02-28T02:55:20;26.53;;;2.37;;
4232;SDS011;2130;48.472;11.934;2023-02-28T02:58:13;26.00;;;1.87;;
4232;SDS011;2130;48.472;11.934;2023-02-28T03:01:04;25.47;;;1.50;;
4232;SDS011;2130;48.472;11.934;2023-02-28T03:03:56;25.20;;;1.50;;
4232;SDS011;2130;48.472;11.934;2023-02-28T03:06:46;26.90;;;2.00;;
4232;SDS011;2130;48.472;11.934;2023-02-28T03:09:37;25.53;;;1.70;;
4232;SDS011;2130;48.472;11.934;2023-02-28T03:12:33;25.60;;;1.63;;
4232;SDS011;2130;48.472;11.934;2023-02-28T03:15:31;25.30;;;1.60;;
4232;SDS011;2130;48.472;11.934;2023-02-28T03:18:28;27.20;;;2.07;;
4232;SDS011;2130;48.472;11.934;2023-02-28T03:21:27;27.23;;;1.80;;
4232;SDS011;2130;48.472;11.934;2023-02-28T03:24:21;25.23;;;1.43;;
4232;SDS011;2130;48.472;11.934;2023-02-28T03:27:17;26.07;;;1.90;;
4232;SDS011;2130;48.472;11.934;2023-02-28T03:30:14;26.20;;;2.03;;
4232;SDS011;2130;48.472;11.934;2023-02-28T03:33:10;25.30;;;1.40;;
4232;SDS011;2130;48.472;11.934;2023-02-28T03:36:02;26.00;;;2.20;;
4232;SDS011;2130;48.472;11.934;2023-02-28T03:38:55;26.00;;;2.30;;
4232;SDS011;2130;48.472;11.934;2023-02-28T03:41:51;25.40;;;1.80;;
4232;SDS011;2130;48.472;11.934;2023-02-28T03:44:45;25.63;;;1.70;;
4232;SDS011;2130;48.472;11.934;2023-02-28T03:47:38;25.83;;;2.13;;
4232;SDS011;2130;48.472;11.934;2023-02-28T03:50:34;25.90;;;2.33;;
4232;SDS011;2130;48.472;11.934;2023-02-28T03:53:27;26.90;;;1.80;;
4232;SDS011;2130;48.472;11.934;2023-02-28T03:56:18;30.23;;;1.93;;
4232;SDS011;2130;48.472;11.934;2023-02-28T03:59:10;27.50;;;2.93;;
4232;SDS011;2130;48.472;11.934;2023-02-28T04:02:04;26.37;;;2.33;;
4232;SDS011;2130;48.472;11.934;2023-02-28T04:09:53;25.23;;;1.80;;
4232;SDS011;2130;48.472;11.934;2023-02-28T04:12:43;25.60;;;1.73;;
4232;SDS011;2130;48.472;11.934;2023-02-28T04:15:34;25.20;;;1.90;;
4232;SDS011;2130;48.472;11.934;2023-02-28T04:18:27;26.17;;;2.13;;
4232;SDS011;2130;48.472;11.934;2023-02-28T04:21:17;28.23;;;2.30;;
4232;SDS011;2130;48.472;11.934;2023-02-28T04:24:12;26.20;;;2.30;;
4232;SDS011;2130;48.472;11.934;2023-02-28T04:27:02;25.87;;;2.17;;
4232;SDS011;2130;48.472;11.934;2023-02-28T04:29:53;26.53;;;2.53;;
4232;SDS011;2130;48.472;11.934;2023-02-28T04:32:44;25.27;;;1.90;;
4232;SDS011;2130;48.472;11.934;2023-02-28T04:35:36;25.90;;;2.20;;
4232;SDS011;2130;48.472;11.934;2023-02-28T04:38:28;25.73;;;2.17;;
4232;SDS011;2130;48.472;11.934;2023-02-28T04:41:19;28.50;;;2.47;;
4232;SDS011;2130;48.472;11.934;2023-02-28T04:44:09;25.20;;;2.00;;
4232;SDS011;2130;48.472;11.934;2023-02-28T04:46:59;26.50;;;1.80;;
4232;SDS011;2130;48.472;11.934;2023-02-28T04:49:49;26.77;;;2.50;;
4232;SDS011;2130;48.472;11.934;2023-02-28T04:52:44;26.97;;;2.40;;
4232;SDS011;2130;48.472;11.934;2023-02-28T04:55:39;25.90;;;2.00;;
4232;SDS011;2130;48.472;11.934;2023-02-28T04:58:33;25.47;;;2.10;;
4232;SDS011;2130;48.472;11.934;2023-02-28T05:01:26;25.70;;;2.07;;
4232;SDS011;2130;48.472;11.934;2023-02-28T05:04:18;25.63;;;2.30;;
4232;SDS011;2130;48.472;11.934;2023-02-28T05:07:09;25.87;;;2.13;;
4232;SDS011;2130;48.472;11.934;2023-02-28T05:10:00;26.60;;;2.57;;
4232;SDS011;2130;48.472;11.934;2023-02-28T05:12:52;26.20;;;2.00;;
4232;SDS011;2130;48.472;11.934;2023-02-28T05:15:42;26.23;;;3.07;;
4232;SDS011;2130;48.472;11.934;2023-02-28T05:18:32;26.07;;;2.20;;
4232;SDS011;2130;48.472;11.934;2023-02-28T05:21:23;26.10;;;2.23;;
4232;SDS011;2130;48.472;11.934;2023-02-28T05:24:15;24.97;;;1.67;;
4232;SDS011;2130;48.472;11.934;2023-02-28T05:27:11;26.73;;;2.80;;
4232;SDS011;2130;48.472;11.934;2023-02-28T05:30:01;26.77;;;2.43;;
4232;SDS011;2130;48.472;11.934;2023-02-28T05:32:52;24.93;;;1.80;;
4232;SDS011;2130;48.472;11.934;2023-02-28T05:35:42;30.03;;;2.90;;
4232;SDS011;2130;48.472;11.934;2023-02-28T05:38:32;27.00;;;2.60;;
4232;SDS011;2130;48.472;11.934;2023-02-28T05:41:25;26.57;;;2.43;;
4232;SDS011;2130;48.472;11.934;2023-02-28T05:44:18;25.00;;;1.70;;
4232;SDS011;2130;48.472;11.934;2023-02-28T05:47:08;27.13;;;2.23;;
4232;SDS011;2130;48.472;11.934;2023-02-28T05:49:59;25.57;;;1.90;;
4232;SDS011;2130;48.472;11.934;2023-02-28T05:52:49;25.67;;;2.30;;
4232;SDS011;2130;48.472;11.934;2023-02-28T05:55:39;25.30;;;2.00;;
4232;SDS011;2130;48.472;11.934;2023-02-28T05:58:29;26.27;;;2.73;;
4232;SDS011;2130;48.472;11.934;2023-02-28T06:01:26;26.53;;;2.47;;
4232;SDS011;2130;48.472;11.934;2023-02-28T06:04:21;25.57;;;2.30;;
4232;SDS011;2130;48.472;11.934;2023-02-28T06:07:18;25.30;;;1.93;;
4232;SDS011;2130;48.472;11.934;2023-02-28T06:10:11;26.20;;;2.33;;
4232;SDS011;2130;48.472;11.934;2023-02-28T06:13:01;26.70;;;2.20;;
4232;SDS011;2130;48.472;11.934;2023-02-28T06:15:52;30.10;;;2.87;;
4232;SDS011;2130;48.472;11.934;2023-02-28T06:18:43;35.60;;;2.90;;
4232;SDS011;2130;48.472;11.934;2023-02-28T06:21:33;25.03;;;1.83;;
4232;SDS011;2130;48.472;11.934;2023-02-28T06:24:24;26.27;;;2.50;;
4232;SDS011;2130;48.472;11.934;2023-02-28T06:27:18;27.20;;;2.70;;
4232;SDS011;2130;48.472;11.934;2023-02-28T06:30:09;26.47;;;2.97;;
4232;SDS011;2130;48.472;11.934;2023-02-28T06:33:00;25.90;;;2.57;;
4232;SDS011;2130;48.472;11.934;2023-02-28T06:35:51;26.37;;;2.50;;
4232;SDS011;2130;48.472;11.934;2023-02-28T06:38:41;27.37;;;2.70;;
4232;SDS011;2130;48.472;11.934;2023-02-28T06:41:33;25.87;;;2.60;;
4232;SDS011;2130;48.472;11.934;2023-02-28T06:44:41;26.23;;;2.40;;
4232;SDS011;2130;48.472;11.934;2023-02-28T06:47:31;25.53;;;2.20;;
4232;SDS011;2130;48.472;11.934;2023-02-28T06:50:20;27.20;;;2.70;;
4232;SDS011;2130;48.472;11.934;2023-02-28T06:53:12;26.50;;;2.27;;
4232;SDS011;2130;48.472;11.934;2023-02-28T06:56:03;25.40;;;2.10;;
4232;SDS011;2130;48.472;11.934;2023-02-28T06:58:54;25.47;;;2.43;;
4232;SDS011;2130;48.472;11.934;2023-02-28T07:01:44;31.73;;;3.20;;
4232;SDS011;2130;48.472;11.934;2023-02-28T07:04:35;25.47;;;2.27;;
4232;SDS011;2130;48.472;11.934;2023-02-28T07:07:28;26.90;;;2.83;;
4232;SDS011;2130;48.472;11.934;2023-02-28T07:10:19;26.70;;;2.47;;
4232;SDS011;2130;48.472;11.934;2023-02-28T07:13:09;27.90;;;2.40;;
4232;SDS011;2130;48.472;11.934;2023-02-28T07:16:00;25.67;;;2.33;;
4232;SDS011;2130;48.472;11.934;2023-02-28T07:18:52;27.20;;;2.80;;
4232;SDS011;2130;48.472;11.934;2023-02-28T07:21:41;27.00;;;2.53;;
4232;SDS011;2130;48.472;11.934;2023-02-28T07:24:31;25.67;;;2.07;;
4232;SDS011;2130;48.472;11.934;2023-02-28T07:27:22;25.03;;;1.73;;
4232;SDS011;2130;48.472;11.934;2023-02-28T07:30:13;26.30;;;2.40;;
4232;SDS011;2130;48.472;11.934;2023-02-28T07:33:04;25.70;;;2.30;;
4232;SDS011;2130;48.472;11.934;2023-02-28T07:35:59;26.70;;;2.10;;
4232;SDS011;2130;48.472;11.934;2023-02-28T07:38:52;25.90;;;2.33;;
4232;SDS011;2130;48.472;11.934;2023-02-28T07:41:42;25.57;;;2.07;;
4232;SDS011;2130;48.472;11.934;2023-02-28T07:44:34;28.93;;;2.33;;
4232;SDS011;2130;48.472;11.934;2023-02-28T07:47:28;27.33;;;2.47;;
4232;SDS011;2130;48.472;11.934;2023-02-28T07:50:18;26.20;;;2.30;;
4232;SDS011;2130;48.472;11.934;2023-02-28T07:53:13;25.87;;;2.50;;
4232;SDS011;2130;48.472;11.934;2023-02-28T07:56:04;26.83;;;2.50;;
4232;SDS011;2130;48.472;11.934;2023-02-28T07:58:55;26.10;;;1.97;;
4232;SDS011;2130;48.472;11.934;2023-02-28T08:01:46;36.60;;;3.20;;
4232;SDS011;2130;48.472;11.934;2023-02-28T08:04:40;27.73;;;2.53;;
4232;SDS011;2130;48.472;11.934;2023-02-28T08:07:30;26.90;;;2.20;;
4232;SDS011;2130;48.472;11.934;2023-02-28T08:10:21;25.77;;;2.20;;
4232;SDS011;2130;48.472;11.934;2023-02-28T08:13:11;25.70;;;1.80;;
4232;SDS011;2130;48.472;11.934;2023-02-28T08:16:02;26.97;;;3.00;;
4232;SDS011;2130;48.472;11.934;2023-02-28T08:18:54;28.23;;;2.70;;
4232;SDS011;2130;48.472;11.934;2023-02-28T08:21:44;25.77;;;2.70;;
4232;SDS011;2130;48.472;11.934;2023-02-28T08:24:35;27.37;;;2.80;;
4232;SDS011;2130;48.472;11.934;2023-02-28T08:27:25;25.70;;;2.10;;
4232;SDS011;2130;48.472;11.934;2023-02-28T08:30:15;26.53;;;2.43;;
4232;SDS011;2130;48.472;11.934;2023-02-28T08:33:05;26.63;;;2.13;;
4232;SDS011;2130;48.472;11.934;2023-02-28T08:35:57;26.37;;;2.30;;
4232;SDS011;2130;48.472;11.934;2023-02-28T08:38:47;27.33;;;2.20;;
4232;SDS011;2130;48.472;11.934;2023-02-28T08:41:36;27.00;;;2.57;;
4232;SDS011;2130;48.472;11.934;2023-02-28T08:44:26;24.17;;;2.23;;
4232;SDS011;2130;48.472;11.934;2023-02-28T08:47:20;26.47;;;2.73;;
4232;SDS011;2130;48.472;11.934;2023-02-28T08:50:10;27.30;;;2.53;;
4232;SDS011;2130;48.472;11.934;2023-02-28T08:53:04;26.57;;;2.30;;
4232;SDS011;2130;48.472;11.934;2023-02-28T08:55:57;26.73;;;2.30;;
4232;SDS011;2130;48.472;11.934;2023-02-28T08:58:54;26.97;;;2.30;;
4232;SDS011;2130;48.472;11.934;2023-02-28T09:01:44;26.37;;;2.40;;
4232;SDS011;2130;48.472;11.934;2023-02-28T09:04:34;28.50;;;2.37;;
4232;SDS011;2130;48.472;11.934;2023-02-28T09:07:24;26.90;;;2.50;;
4232;SDS011;2130;48.472;11.934;2023-02-28T09:10:16;27.10;;;2.77;;
4232;SDS011;2130;48.472;11.934;2023-02-28T09:13:06;26.17;;;2.10;;
4232;SDS011;2130;48.472;11.934;2023-02-28T09:15:57;26.30;;;2.30;;
4232;SDS011;2130;48.472;11.934;2023-02-28T09:18:47;26.23;;;2.20;;
4232;SDS011;2130;48.472;11.934;2023-02-28T09:21:37;25.00;;;2.10;;
4232;SDS011;2130;48.472;11.934;2023-02-28T09:24:28;26.50;;;2.37;;
4232;SDS011;2130;48.472;11.934;2023-02-28T09:27:22;27.00;;;2.60;;
4232;SDS011;2130;48.472;11.934;2023-02-28T09:30:12;26.90;;;2.40;;
4232;SDS011;2130;48.472;11.934;2023-02-28T09:33:04;25.57;;;1.80;;
4232;SDS011;2130;48.472;11.934;2023-02-28T09:35:57;26.03;;;2.37;;
4232;SDS011;2130;48.472;11.934;2023-02-28T09:38:48;26.07;;;2.50;;
4232;SDS011;2130;48.472;11.934;2023-02-28T09:41:41;26.63;;;2.60;;
4232;SDS011;2130;48.472;11.934;2023-02-28T09:44:38;25.77;;;2.40;;
4232;SDS011;2130;48.472;11.934;2023-02-28T09:47:32;27.83;;;2.50;;
4232;SDS011;2130;48.472;11.934;2023-02-28T09:50:30;32.20;;;2.97;;
4232;SDS011;2130;48.472;11.934;2023-02-28T09:53:22;28.57;;;3.17;;
4232;SDS011;2130;48.472;11.934;2023-02-28T09:56:20;31.00;;;3.87;;
4232;SDS011;2130;48.472;11.934;2023-02-28T09:59:18;25.47;;;2.43;;
4232;SDS011;2130;48.472;11.934;2023-02-28T10:02:32;34.30;;;2.50;;
4232;SDS011;2130;48.472;11.934;2023-02-28T10:05:32;26.00;;;2.20;;
4232;SDS011;2130;48.472;11.934;2023-02-28T10:08:25;27.90;;;2.83;;
4232;SDS011;2130;48.472;11.934;2023-02-28T10:11:16;26.10;;;2.67;;
4232;SDS011;2130;48.472;11.934;2023-02-28T10:14:10;26.40;;;3.00;;
4232;SDS011;2130;48.472;11.934;2023-02-28T10:17:04;26.03;;;2.07;;
4232;SDS011;2130;48.472;11.934;2023-02-28T10:20:00;23.97;;;2.77;;
4232;SDS011;2130;48.472;11.934;2023-02-28T10:22:57;27.30;;;2.77;;
4232;SDS011;2130;48.472;11.934;2023-02-28T10:25:55;27.20;;;2.63;;
4232;SDS011;2130;48.472;11.934;2023-02-28T10:28:48;25.87;;;2.30;;
4232;SDS011;2130;48.472;11.934;2023-02-28T10:31:38;27.40;;;2.77;;
4232;SDS011;2130;48.472;11.934;2023-02-28T10:34:28;25.97;;;2.23;;
4232;SDS011;2130;48.472;11.934;2023-02-28T10:37:19;28.90;;;2.80;;
4232;SDS011;2130;48.472;11.934;2023-02-28T10:40:25;28.57;;;2.67;;
4232;SDS011;2130;48.472;11.934;2023-02-28T10:43:18;26.50;;;2.30;;
4232;SDS011;2130;48.472;11.934;2023-02-28T10:46:11;26.53;;;2.57;;
4232;SDS011;2130;48.472;11.934;2023-02-28T10:49:14;24.80;;;2.10;;
4232;SDS011;2130;48.472;11.934;2023-02-28T10:52:07;25.90;;;2.53;;
4232;SDS011;2130;48.472;11.934;2023-02-28T10:58:25;26.53;;;2.33;;
4232;SDS011;2130;48.472;11.934;2023-02-28T11:01:17;28.40;;;3.47;;
4232;SDS011;2130;48.472;11.934;2023-02-28T11:04:18;29.13;;;3.53;;
4232;SDS011;2130;48.472;11.934;2023-02-28T11:07:16;26.07;;;2.87;;
4232;SDS011;2130;48.472;11.934;2023-02-28T11:10:16;26.60;;;3.03;;
4232;SDS011;2130;48.472;11.934;2023-02-28T11:13:12;26.43;;;2.63;;
4232;SDS011;2130;48.472;11.934;2023-02-28T11:16:07;25.73;;;2.97;;
4232;SDS011;2130;48.472;11.934;2023-02-28T11:18:58;25.70;;;2.60;;
4232;SDS011;2130;48.472;11.934;2023-02-28T11:21:51;25.10;;;2.33;;
4232;SDS011;2130;48.472;11.934;2023-02-28T11:24:43;24.37;;;3.40;;
4232;SDS011;2130;48.472;11.934;2023-02-28T11:30:53;24.73;;;2.80;;
4232;SDS011;2130;48.472;11.934;2023-02-28T11:33:50;24.30;;;2.33;;
4232;SDS011;2130;48.472;11.934;2023-02-28T11:36:41;24.03;;;2.60;;
4232;SDS011;2130;48.472;11.934;2023-02-28T11:39:32;25.20;;;3.33;;
4232;SDS011;2130;48.472;11.934;2023-02-28T11:42:26;27.23;;;2.93;;
4232;SDS011;2130;48.472;11.934;2023-02-28T11:45:30;26.90;;;2.93;;
4232;SDS011;2130;48.472;11.934;2023-02-28T11:48:32;25.83;;;2.60;;
4232;SDS011;2130;48.472;11.934;2023-02-28T11:51:30;25.23;;;2.70;;
4232;SDS011;2130;48.472;11.934;2023-02-28T11:54:32;25.80;;;2.80;;
4232;SDS011;2130;48.472;11.934;2023-02-28T11:57:36;23.23;;;2.60;;
4232;SDS011;2130;48.472;11.934;2023-02-28T12:00:53;25.43;;;3.37;;
4232;SDS011;2130;48.472;11.934;2023-02-28T12:03:54;24.77;;;3.30;;
4232;SDS011;2130;48.472;11.934;2023-02-28T12:06:48;33.73;;;3.47;;
4232;SDS011;2130;48.472;11.934;2023-02-28T12:09:42;26.53;;;3.20;;
4232;SDS011;2130;48.472;11.934;2023-02-28T12:12:41;22.07;;;2.30;;
4232;SDS011;2130;48.472;11.934;2023-02-28T12:15:39;23.30;;;2.67;;
4232;SDS011;2130;48.472;11.934;2023-02-28T12:18:50;24.13;;;3.10;;
4232;SDS011;2130;48.472;11.934;2023-02-28T12:22:03;24.40;;;2.33;;
4232;SDS011;2130;48.472;11.934;2023-02-28T12:28:25;24.63;;;2.40;;
4232;SDS011;2130;48.472;11.934;2023-02-28T12:31:17;22.27;;;2.60;;
4232;SDS011;2130;48.472;11.934;2023-02-28T12:34:13;23.40;;;2.83;;
4232;SDS011;2130;48.472;11.934;2023-02-28T12:37:06;23.83;;;2.50;;
4232;SDS011;2130;48.472;11.934;2023-02-28T12:40:00;25.10;;;3.33;;
4232;SDS011;2130;48.472;11.934;2023-02-28T12:42:54;22.57;;;2.90;;
4232;SDS011;2130;48.472;11.934;2023-02-28T12:45:47;24.60;;;3.27;;
4232;SDS011;2130;48.472;11.934;2023-02-28T12:48:40;23.83;;;2.40;;
4232;SDS011;2130;48.472;11.934;2023-02-28T12:51:35;23.93;;;2.97;;
4232;SDS011;2130;48.472;11.934;2023-02-28T12:54:25;24.40;;;3.30;;
4232;SDS011;2130;48.472;11.934;2023-02-28T12:57:18;24.03;;;3.10;;
4232;SDS011;2130;48.472;11.934;2023-02-28T13:00:15;21.10;;;2.87;;
4232;SDS011;2130;48.472;11.934;2023-02-28T13:03:21;25.20;;;3.10;;
4232;SDS011;2130;48.472;11.934;2023-02-28T13:06:29;24.53;;;3.40;;
4232;SDS011;2130;48.472;11.934;2023-02-28T13:09:51;25.30;;;3.57;;
4232;SDS011;2130;48.472;11.934;2023-02-28T13:12:46;23.37;;;3.30;;
4232;SDS011;2130;48.472;11.934;2023-02-28T13:15:37;22.03;;;2.60;;
4232;SDS011;2130;48.472;11.934;2023-02-28T13:18:34;23.43;;;3.43;;
4232;SDS011;2130;48.472;11.934;2023-02-28T13:21:30;20.70;;;2.97;;
4232;SDS011;2130;48.472;11.934;2023-02-28T13:24:37;22.77;;;2.93;;
4232;SDS011;2130;48.472;11.934;2023-02-28T13:27:34;20.40;;;2.40;;
4232;SDS011;2130;48.472;11.934;2023-02-28T13:34:11;22.93;;;3.27;;
4232;SDS011;2130;48.472;11.934;2023-02-28T13:40:28;22.20;;;2.93;;
4232;SDS011;2130;48.472;11.934;2023-02-28T13:43:25;22.63;;;2.53;;
4232;SDS011;2130;48.472;11.934;2023-02-28T13:50:32;21.10;;;2.50;;
4232;SDS011;2130;48.472;11.934;2023-02-28T13:53:45;22.03;;;3.23;;
4232;SDS011;2130;48.472;11.934;2023-02-28T13:56:50;20.47;;;3.10;;
4232;SDS011;2130;48.472;11.934;2023-02-28T13:59:47;20.90;;;2.90;;
4232;SDS011;2130;48.472;11.934;2023-02-28T14:02:44;21.23;;;2.60;;
4232;SDS011;2130;48.472;11.934;2023-02-28T14:05:42;20.03;;;2.90;;
4232;SDS011;2130;48.472;11.934;2023-02-28T14:08:32;20.00;;;2.97;;
4232;SDS011;2130;48.472;11.934;2023-02-28T14:11:24;19.57;;;3.17;;
4232;SDS011;2130;48.472;11.934;2023-02-28T14:17:39;21.63;;;2.70;;
4232;SDS011;2130;48.472;11.934;2023-02-28T14:20:29;17.93;;;2.70;;
4232;SDS011;2130;48.472;11.934;2023-02-28T14:26:46;19.30;;;3.17;;
4232;SDS011;2130;48.472;11.934;2023-02-28T14:29:50;17.23;;;2.70;;
4232;SDS011;2130;48.472;11.934;2023-02-28T14:33:00;17.43;;;2.47;;
4232;SDS011;2130;48.472;11.934;2023-02-28T14:36:01;18.53;;;2.80;;
4232;SDS011;2130;48.472;11.934;2023-02-28T14:38:54;17.90;;;2.47;;
4232;SDS011;2130;48.472;11.934;2023-02-28T14:41:45;17.73;;;2.50;;
4232;SDS011;2130;48.472;11.934;2023-02-28T14:44:35;17.60;;;2.60;;
4232;SDS011;2130;48.472;11.934;2023-02-28T14:47:26;17.80;;;2.60;;
4232;SDS011;2130;48.472;11.934;2023-02-28T14:50:19;17.70;;;2.40;;
4232;SDS011;2130;48.472;11.934;2023-02-28T14:53:10;18.23;;;2.37;;
4232;SDS011;2130;48.472;11.934;2023-02-28T14:56:06;18.80;;;2.50;;
4232;SDS011;2130;48.472;11.934;2023-02-28T15:02:22;19.10;;;2.43;;
4232;SDS011;2130;48.472;11.934;2023-02-28T15:05:21;18.03;;;2.80;;
4232;SDS011;2130;48.472;11.934;2023-02-28T15:08:13;16.17;;;2.03;;
4232;SDS011;2130;48.472;11.934;2023-02-28T15:11:04;16.93;;;2.30;;
4232;SDS011;2130;48.472;11.934;2023-02-28T15:13:54;16.33;;;2.00;;
4232;SDS011;2130;48.472;11.934;2023-02-28T15:16:44;16.20;;;2.27;;
4232;SDS011;2130;48.472;11.934;2023-02-28T15:19:34;16.37;;;2.07;;
4232;SDS011;2130;48.472;11.934;2023-02-28T15:22:28;15.80;;;2.20;;
4232;SDS011;2130;48.472;11.934;2023-02-28T15:25:22;17.93;;;2.50;;
4232;SDS011;2130;48.472;11.934;2023-02-28T15:28:13;16.50;;;2.30;;
4232;SDS011;2130;48.472;11.934;2023-02-28T15:31:13;17.17;;;2.20;;
4232;SDS011;2130;48.472;11.934;2023-02-28T15:34:15;16.73;;;2.20;;
4232;SDS011;2130;48.472;11.934;2023-02-28T15:40:23;18.70;;;2.40;;
4232;SDS011;2130;48.472;11.934;2023-02-28T15:43:15;16.50;;;2.20;;
4232;SDS011;2130;48.472;11.934;2023-02-28T15:46:06;16.70;;;2.30;;
4232;SDS011;2130;48.472;11.934;2023-02-28T15:48:57;15.40;;;2.17;;
4232;SDS011;2130;48.472;11.934;2023-02-28T15:51:47;18.50;;;2.87;;
4232;SDS011;2130;48.472;11.934;2023-02-28T15:54:39;16.67;;;2.30;;
4232;SDS011;2130;48.472;11.934;2023-02-28T15:57:30;17.47;;;2.60;;
4232;SDS011;2130;48.472;11.934;2023-02-28T16:00:20;16.97;;;2.50;;
4232;SDS011;2130;48.472;11.934;2023-02-28T16:03:23;16.70;;;2.40;;
4232;SDS011;2130;48.472;11.934;2023-02-28T16:06:24;15.07;;;2.10;;
4232;SDS011;2130;48.472;11.934;2023-02-28T16:09:19;16.50;;;2.37;;
4232;SDS011;2130;48.472;11.934;2023-02-28T16:12:10;17.07;;;2.60;;
4232;SDS011;2130;48.472;11.934;2023-02-28T16:15:02;17.90;;;2.47;;
4232;SDS011;2130;48.472;11.934;2023-02-28T16:17:56;17.50;;;2.70;;
4232;SDS011;2130;48.472;11.934;2023-02-28T16:20:46;17.40;;;2.60;;
4232;SDS011;2130;48.472;11.934;2023-02-28T16:23:35;15.30;;;2.20;;
4232;SDS011;2130;48.472;11.934;2023-02-28T16:26:25;18.33;;;3.00;;
4232;SDS011;2130;48.472;11.934;2023-02-28T16:29:18;22.93;;;3.00;;
4232;SDS011;2130;48.472;11.934;2023-02-28T16:32:13;18.53;;;3.20;;
4232;SDS011;2130;48.472;11.934;2023-02-28T16:35:05;20.00;;;3.23;;
4232;SDS011;2130;48.472;11.934;2023-02-28T16:37:58;17.37;;;3.10;;
4232;SDS011;2130;48.472;11.934;2023-02-28T16:40:49;18.27;;;3.20;;
4232;SDS011;2130;48.472;11.934;2023-02-28T16:43:39;25.30;;;2.90;;
4232;SDS011;2130;48.472;11.934;2023-02-28T16:46:31;21.80;;;3.53;;
4232;SDS011;2130;48.472;11.934;2023-02-28T16:49:23;18.53;;;2.87;;
4232;SDS011;2130;48.472;11.934;2023-02-28T16:52:13;17.83;;;2.87;;
4232;SDS011;2130;48.472;11.934;2023-02-28T16:55:03;19.40;;;3.53;;
4232;SDS011;2130;48.472;11.934;2023-02-28T16:57:54;19.47;;;2.80;;
4232;SDS011;2130;48.472;11.934;2023-02-28T17:00:45;21.27;;;3.43;;
4232;SDS011;2130;48.472;11.934;2023-02-28T17:03:36;18.30;;;3.10;;
4232;SDS011;2130;48.472;11.934;2023-02-28T17:06:28;20.23;;;2.80;;
4232;SDS011;2130;48.472;11.934;2023-02-28T17:09:19;20.27;;;3.97;;
4232;SDS011;2130;48.472;11.934;2023-02-28T17:12:17;20.30;;;3.10;;
4232;SDS011;2130;48.472;11.934;2023-02-28T17:15:08;20.83;;;3.47;;
4232;SDS011;2130;48.472;11.934;2023-02-28T17:17:58;24.30;;;3.50;;
4232;SDS011;2130;48.472;11.934;2023-02-28T17:20:50;21.80;;;3.10;;
4232;SDS011;2130;48.472;11.934;2023-02-28T17:23:40;22.23;;;3.30;;
4232;SDS011;2130;48.472;11.934;2023-02-28T17:26:30;21.60;;;3.20;;
4232;SDS011;2130;48.472;11.934;2023-02-28T17:29:21;24.80;;;4.17;;
4232;SDS011;2130;48.472;11.934;2023-02-28T17:32:12;22.83;;;4.17;;
4232;SDS011;2130;48.472;11.934;2023-02-28T17:35:05;27.93;;;4.23;;
4232;SDS011;2130;48.472;11.934;2023-02-28T17:37:58;23.27;;;3.87;;
4232;SDS011;2130;48.472;11.934;2023-02-28T17:40:47;23.77;;;3.83;;
4232;SDS011;2130;48.472;11.934;2023-02-28T17:43:37;22.70;;;3.67;;
4232;SDS011;2130;48.472;11.934;2023-02-28T17:46:27;22.27;;;3.53;;
4232;SDS011;2130;48.472;11.934;2023-02-28T17:49:18;22.97;;;3.33;;
4232;SDS011;2130;48.472;11.934;2023-02-28T17:52:08;23.60;;;3.10;;
4232;SDS011;2130;48.472;11.934;2023-02-28T17:55:00;27.70;;;3.97;;
4232;SDS011;2130;48.472;11.934;2023-02-28T17:57:50;25.33;;;3.77;;
4232;SDS011;2130;48.472;11.934;2023-02-28T18:00:40;27.23;;;4.80;;
4232;SDS011;2130;48.472;11.934;2023-02-28T18:03:30;23.63;;;3.70;;
4232;SDS011;2130;48.472;11.934;2023-02-28T18:06:21;25.23;;;3.93;;
4232;SDS011;2130;48.472;11.934;2023-02-28T18:09:13;29.83;;;4.57;;
4232;SDS011;2130;48.472;11.934;2023-02-28T18:12:05;32.40;;;3.80;;
4232;SDS011;2130;48.472;11.934;2023-02-28T18:14:55;27.33;;;4.43;;